Nearby METAR Reports

 

KAGC - Pittsburgh/Alleg, Pennsylvania, USA
Distance from station: N 14mi, 23km
Updated: Wed, Nov-13-2019 10:53am EST
Clear
Clear
 Wind from SW
Wind: SW 6 mph , 9 km/h
Temperature: 21°F , -6°C
Wind Chill: 13°F , -11°C
Dew Point: 14°F , -10°C
Humidity: 74%
Barometer: 30.40 inHg , 1029.5 hPa
Clouds: Clear
Visibility: 10 miles , 16 km
2019/11/13 15:53 KAGC 131553Z 23005KT 10SM CLR M06/M10 A3040 RMK AO2 SLP322 T10561100
KAFJ - Washington, Pennsylvania, USA
Distance from station: W 17mi, 28km
Updated: Wed, Nov-13-2019 10:56am EST
Clear
Clear
 Wind from varies
Wind: varies 5 mph , 7 km/h
Temperature: 25°F , -4°C
Wind Chill: 19°F , -7°C
Dew Point: 16°F , -9°C
Humidity: 69%
Barometer: 30.44 inHg , 1030.8 hPa
Clouds: Clear
Visibility: 10 miles , 16 km
2019/11/13 15:56 KAFJ 131556Z AUTO VRB04KT 10SM CLR M04/M09 A3044 RMK AO2 SLP327 T10391089 PWINO FZRANO $
 
KLBE - Latrobe, Pennsylvania, USA
Distance from station: ENE 30mi, 48km
Updated: Wed, Nov-13-2019 10:50am EST
Clear
Clear
 Wind from SSW
Wind: SSW 9 mph , 15 km/h
Temperature: 21°F , -6°C
Wind Chill: 11°F , -12°C
Dew Point: 14°F , -10°C
Humidity: 74%
Barometer: 30.42 inHg , 1030.1 hPa
Clouds: Clear
Visibility: 10 miles , 16 km
2019/11/13 15:50 KLBE 131550Z 21008KT 10SM SKC M06/M10 A3042
KPIT - Pittsburgh, Pennsylvania, USA
Distance from station: NW 30mi, 48km
Updated: Wed, Nov-13-2019 10:51am EST
Partly cloudy
Partly cloudy
 Wind from calm
Wind: Calm
Temperature: 25°F , -4°C
Dew Point: 12°F , -11°C
Humidity: 59%
Barometer: 30.39 inHg , 1029.1 hPa
Clouds: Partly cloudy
Visibility: 10 miles , 16 km
Cloud details: Few Clouds 2800 ft
Partly cloudy 25000 ft
2019/11/13 15:51 KPIT 131551Z 00000KT 10SM FEW028 SCT250 M04/M11 A3039 RMK AO2 SLP320 T10441106
 
KMGW - Morgantown, West Virginia, USA
Distance from station: S 34mi, 55km
Updated: Wed, Nov-13-2019 10:53am EST
Clear
Clear
 Wind from SSE
Wind: SSE 5 mph , 7 km/h
Temperature: 21°F , -6°C
Wind Chill: 14°F , -10°C
Dew Point: 12°F , -11°C
Humidity: 68%
Barometer: 30.43 inHg , 1030.5 hPa
Clouds: Clear
Visibility: 10 miles , 16 km
2019/11/13 15:53 KMGW 131553Z 16004KT 10SM CLR M06/M11 A3043 RMK AO2 SLP323 T10561106
KHLG - Wheeling, West Virginia, USA
Distance from station: W 37mi, 60km
Updated: Wed, Nov-13-2019 10:53am EST
Clear
Clear
 Wind from S
Wind: S 5 mph , 7 km/h
Temperature: 21°F , -6°C
Wind Chill: 14°F , -10°C
Dew Point: 12°F , -11°C
Humidity: 68%
Barometer: 30.41 inHg , 1029.8 hPa
Clouds: Clear
Visibility: 10 miles , 16 km
2019/11/13 15:53 KHLG 131553Z 19004KT 10SM CLR M06/M11 A3041 RMK AO2 SLP320 T10561111
 
KBTP - Butler Co., Pennsylvania, USA
Distance from station: N 43mi, 69km
Updated: Wed, Nov-13-2019 10:56am EST
Clear
Clear
 Wind from SW
Wind: SW 5 mph , 7 km/h
Temperature: 34°F , 1°C
Wind Chill: 29°F , -2°C
Dew Point: 27°F , -3°C
Humidity: 75%
Barometer: 30.40 inHg , 1029.5 hPa
Clouds: Clear
Visibility: 10 miles , 16 km
2019/11/13 15:56 KBTP 131556Z AUTO 23004KT 10SM CLR 01/M03 A3040 RMK AO2 SLP320 T00061033 FZRANO
KBVI - Beaver Falls Arp, Pennsylvania, USA
Distance from station: NNW 49mi, 79km
Updated: Wed, Nov-13-2019 10:55am EST
Clear
Clear
 Wind from SSW
Wind: SSW 3 mph , 6 km/h
Temperature: 27°F , -3°C
Dew Point: 14°F , -10°C
Humidity: 59%
Barometer: 30.39 inHg , 1029.1 hPa
Clouds: Clear
Visibility: 10 miles , 16 km
2019/11/13 15:55 KBVI 131555Z AUTO 21003KT 10SM CLR M03/M10 A3039 RMK AO2 T10281096
 
K2G4 - Garrett Co, Maryland, USA
Distance from station: SE 51mi, 82km
Updated: Wed, Nov-13-2019 10:45am EST
Partly cloudy
Partly cloudy
 Wind from W
Wind: W 3 mph , 6 km/h
Temperature: 18°F , -8°C
Dew Point: 9°F , -13°C
Humidity: 68%
Barometer: 30.27 inHg , 1025.1 hPa
Clouds: Partly cloudy
Visibility: 10 miles , 16 km
Cloud details: Partly cloudy 1800 ft
2019/11/13 15:45 K2G4 131545Z AUTO 28003KT 10SM SCT018 M08/M13 A3027 RMK AO1
KIDI - Indiana/Stewart, Pennsylvania, USA
Distance from station: NE 56mi, 90km
Updated: Wed, Nov-13-2019 10:55am EST
Mostly cloudy
Mostly cloudy
 Wind from WSW
Wind: WSW 7 mph , 11 km/h
Temperature: 21°F , -6°C
Wind Chill: 12°F , -11°C
Dew Point: 16°F , -9°C
Humidity: 80%
Barometer: 30.40 inHg , 1029.5 hPa
Clouds: Mostly cloudy
Visibility: 10 miles , 16 km
Cloud details: Few Clouds 1700 ft
Mostly cloudy 3000 ft
Mostly cloudy 3400 ft
2019/11/13 15:55 KIDI 131555Z AUTO 25006KT 10SM FEW017 BKN030 BKN034 M06/M09 A3040 RMK A01
 
KJST - Johnstown, Pennsylvania, USA
Distance from station: ENE 60mi, 96km
Updated: Wed, Nov-13-2019 10:54am EST
Clear
Clear
 Wind from NW
Wind: NW 5 mph , 7 km/h
Temperature: 19°F , -7°C
Wind Chill: 12°F , -11°C
Dew Point: 10°F , -12°C
Humidity: 68%
Barometer: 30.29 inHg , 1025.7 hPa
Clouds: Clear
Visibility: 10 miles , 16 km
2019/11/13 15:54 KJST 131554Z AUTO 32004KT 10SM CLR M07/M12 A3029 RMK AO2 SLP297 T10671117
KCBE - Cumberland Reg, Maryland, USA
Distance from station: ESE 72mi, 116km
Updated: Wed, Nov-13-2019 10:40am EST
Partly cloudy
Partly cloudy
 Wind from NE
Wind: NE 3 mph , 6 km/h
Temperature: 27°F , -3°C
Dew Point: 10°F , -12°C
Humidity: 50%
Barometer: 30.47 inHg , 1031.8 hPa
Clouds: Partly cloudy
Visibility: 10 miles , 16 km
Cloud details: Partly cloudy 3900 ft
2019/11/13 15:40 KCBE 131540Z AUTO 05003KT 10SM SCT039 M03/M12 A3047 RMK AO2 T10261119
 
KILG - Wilmington, Delaware, USA
Distance from station: ESE 234mi, 377km
Updated: Wed, Nov-13-2019 10:51am EST
Clear
Clear
 Wind from NNW
Wind: NNW 17 mph , 28 km/h
Temperature: 34°F , 1°C
Wind Chill: 23°F , -5°C
Dew Point: 12°F , -11°C
Humidity: 41%
Barometer: 30.41 inHg , 1029.8 hPa
Clouds: Clear
Visibility: 10 miles , 16 km
2019/11/13 15:51 KILG 131551Z 34015KT 10SM CLR 01/M11 A3041 RMK AO2 SLP300 T00061111 $
KTUS - Tucson, Arizona, USA
Distance from station: WSW 1806mi, 3283km
Updated: Wed, Nov-13-2019 10:53am EST
Clear
Clear
 Wind from ESE
Wind: ESE 7 mph , 11 km/h
Temperature: 57°F , 14°C
Dew Point: 34°F , 1°C
Humidity: 41%
Barometer: 30.09 inHg , 1019 hPa
Clouds: Clear
Visibility: 10 miles , 16 km
2019/11/13 15:53 KTUS 131553Z 12006KT 10SM CLR 14/01 A3009 RMK AO2 SLP165 T01440011